createdAt,value
2023-01-29T20:00:01.180Z,22.69
2023-01-29T20:03:28.833Z,22.78
2023-01-29T20:05:32.918Z,22.90
2023-01-29T20:07:36.728Z,23.03
2023-01-29T20:09:41.295Z,23.03
2023-01-29T20:11:45.169Z,22.91
2023-01-29T20:13:49.781Z,22.94
2023-01-29T20:15:53.807Z,22.95
2023-01-29T20:17:58.705Z,22.97
2023-01-29T20:20:04.099Z,23.06
2023-01-29T20:22:07.955Z,22.65
2023-01-29T20:24:13.017Z,23.02
2023-01-29T20:26:17.436Z,22.79
2023-01-29T20:28:21.295Z,23.15
2023-01-29T20:30:25.197Z,22.99
2023-01-29T20:32:29.695Z,22.80
2023-01-29T20:34:33.526Z,23.04
2023-01-29T20:36:38.712Z,23.10
2023-01-29T20:38:42.597Z,23.02
2023-01-29T20:40:46.380Z,22.90
2023-01-29T20:45:35.963Z,21.03
2023-01-29T20:47:40.032Z,20.60
2023-01-29T20:49:43.960Z,20.54
2023-01-29T20:51:47.821Z,20.41
2023-01-29T20:53:51.782Z,20.40
2023-01-29T20:55:55.784Z,20.51
2023-01-29T20:58:06.546Z,20.46
2023-01-29T21:00:13.130Z,20.37
2023-01-29T21:02:18.576Z,20.35
2023-01-29T21:04:22.713Z,20.27
2023-01-29T21:06:29.321Z,20.42
2023-01-29T21:08:33.451Z,20.31
2023-01-29T21:10:37.294Z,20.38
2023-01-29T21:12:41.142Z,19.11
2023-01-29T21:14:45.033Z,8.55
2023-01-29T21:16:48.948Z,13.72
2023-01-29T21:18:56.622Z,16.81
2023-01-29T21:21:00.428Z,18.23
2023-01-29T21:23:06.967Z,19.26
2023-01-29T21:25:11.346Z,19.68
2023-01-29T21:27:15.207Z,19.77
2023-01-29T21:29:19.100Z,20.07
2023-01-29T21:31:23.051Z,20.36
2023-01-29T21:33:26.936Z,20.54
2023-01-29T21:35:32.650Z,20.42
2023-01-29T21:37:38.437Z,20.41
2023-01-29T21:39:42.309Z,20.48
2023-01-29T21:42:04.690Z,20.36
2023-01-29T21:44:08.821Z,20.44
2023-01-29T21:46:12.682Z,20.34
2023-01-29T21:48:16.567Z,20.21
2023-01-29T21:50:20.688Z,20.10
2023-01-29T21:52:25.979Z,20.06
2023-01-29T21:54:31.120Z,20.23
2023-01-29T21:56:34.954Z,20.26
2023-01-29T21:58:38.793Z,20.21
2023-01-29T22:00:42.614Z,20.13
2023-01-29T22:02:46.753Z,20.07
2023-01-29T22:04:52.228Z,20.12
2023-01-29T22:06:56.175Z,20.12
2023-01-29T22:09:01.480Z,20.11
2023-01-29T22:11:07.065Z,20.07
2023-01-29T22:13:11.174Z,20.04
2023-01-29T22:15:15.297Z,20.05
2023-01-29T22:17:20.125Z,20.13
2023-01-29T22:19:25.129Z,20.06
2023-01-29T22:21:28.952Z,20.04
2023-01-29T22:23:32.998Z,20.06
2023-01-29T22:25:38.184Z,20.04
2023-01-29T22:27:41.990Z,20.02
2023-01-29T22:29:45.828Z,20.03
2023-01-29T22:31:49.630Z,19.99
2023-01-29T22:33:54.047Z,19.98
2023-01-29T22:35:57.876Z,19.98
2023-01-29T22:38:01.722Z,19.91
2023-01-29T22:40:06.787Z,19.99
2023-01-29T22:42:11.920Z,20.07
2023-01-29T22:44:15.809Z,20.07
2023-01-29T22:46:19.651Z,20.06
2023-01-29T22:48:24.160Z,20.05
2023-01-29T22:50:28.027Z,20.03
2023-01-29T22:52:38.319Z,20.01
2023-01-29T22:54:43.290Z,19.99
2023-01-29T22:56:47.178Z,20.04
2023-01-29T22:58:52.774Z,19.97
2023-01-29T23:00:56.603Z,19.94
2023-01-29T23:03:00.583Z,20.03
2023-01-29T23:05:04.771Z,19.98
2023-01-29T23:07:08.569Z,19.95
2023-01-29T23:09:12.399Z,19.93
2023-01-29T23:11:19.823Z,20.03
2023-01-29T23:13:23.626Z,19.99
2023-01-29T23:15:29.185Z,20.00
2023-01-29T23:17:33.066Z,19.96
2023-01-29T23:19:36.860Z,19.97
2023-01-29T23:21:40.874Z,19.97
2023-01-29T23:23:45.231Z,19.99
2023-01-29T23:26:06.497Z,19.94
2023-01-29T23:28:10.374Z,19.91
2023-01-29T23:30:14.919Z,19.91
2023-01-29T23:32:21.544Z,19.91
2023-01-29T23:34:25.444Z,19.97
2023-01-29T23:36:29.313Z,19.97
2023-01-29T23:38:33.204Z,19.92
2023-01-29T23:40:37.020Z,19.90
2023-01-29T23:42:40.832Z,19.91
2023-01-29T23:44:44.672Z,19.90
2023-01-29T23:46:48.841Z,19.91
2023-01-29T23:48:54.052Z,19.94
2023-01-29T23:50:57.858Z,19.87
2023-01-29T23:53:01.685Z,19.89
2023-01-29T23:55:06.710Z,19.85
2023-01-29T23:57:10.527Z,19.87
2023-01-29T23:59:15.057Z,19.94
